createdAt,value
2023-04-14T00:02:24.764Z,6.72
2023-04-14T00:04:55.143Z,6.66
2023-04-14T00:07:22.381Z,6.63
2023-04-14T00:09:49.342Z,6.58
2023-04-14T00:12:16.435Z,6.53
2023-04-14T00:14:43.665Z,6.49
2023-04-14T00:17:11.384Z,6.48
2023-04-14T00:19:38.561Z,6.45
2023-04-14T00:22:05.725Z,6.44
2023-04-14T00:24:32.823Z,6.41
2023-04-14T00:26:59.869Z,6.38
2023-04-14T00:29:26.942Z,6.36
2023-04-14T00:31:53.980Z,6.34
2023-04-14T00:34:21.194Z,6.30
2023-04-14T00:36:48.252Z,6.28
2023-04-14T00:39:15.280Z,6.24
2023-04-14T00:41:43.346Z,6.20
2023-04-14T00:44:10.940Z,6.18
2023-04-14T00:46:39.750Z,6.14
2023-04-14T00:49:07.545Z,6.08
2023-04-14T00:51:36.046Z,6.05
2023-04-14T00:54:11.020Z,5.99
2023-04-14T00:56:39.396Z,5.96
2023-04-14T00:59:07.558Z,5.92
2023-04-14T01:01:38.212Z,5.89
2023-04-14T01:04:06.128Z,5.86
2023-04-14T01:06:33.971Z,5.82
2023-04-14T01:09:01.619Z,5.78
2023-04-14T01:12:14.674Z,5.75
2023-04-14T01:15:04.852Z,5.72
2023-04-14T01:17:34.940Z,5.69
2023-04-14T01:20:37.758Z,5.66
2023-04-14T01:23:27.686Z,5.63
2023-04-14T01:26:22.080Z,5.61
2023-04-14T01:29:19.769Z,5.57
2023-04-14T01:32:02.080Z,5.51
2023-04-14T01:34:43.075Z,5.44
2023-04-14T01:37:18.153Z,5.39
2023-04-14T01:39:53.940Z,5.36
2023-04-14T01:42:29.008Z,5.32
2023-04-14T01:45:02.447Z,5.29
2023-04-14T01:47:30.432Z,5.25
2023-04-14T01:49:59.464Z,5.24
2023-04-14T01:52:27.822Z,5.22
2023-04-14T01:54:57.128Z,5.21
2023-04-14T01:57:26.584Z,5.18
2023-04-14T01:59:59.556Z,5.16
2023-04-14T02:02:27.865Z,5.14
2023-04-14T02:04:57.763Z,5.12
2023-04-14T02:07:26.705Z,5.09
2023-04-14T02:09:56.017Z,5.06
2023-04-14T02:12:26.593Z,5.03
2023-04-14T02:14:55.034Z,5.00
2023-04-14T02:17:22.636Z,4.99
2023-04-14T02:19:51.283Z,4.96
2023-04-14T02:22:18.308Z,4.94
2023-04-14T02:24:47.788Z,4.93
2023-04-14T02:27:33.441Z,4.90
2023-04-14T02:30:12.601Z,4.88
2023-04-14T02:32:49.698Z,4.86
2023-04-14T02:35:27.165Z,4.86
2023-04-14T02:38:08.355Z,4.87
2023-04-14T02:40:41.439Z,4.87
2023-04-14T02:43:28.739Z,4.86
2023-04-14T02:45:56.934Z,4.83
2023-04-14T02:48:27.200Z,4.83
2023-04-14T02:50:56.831Z,4.82
2023-04-14T02:53:25.567Z,4.79
2023-04-14T02:55:52.616Z,4.75
2023-04-14T02:58:21.136Z,4.72
2023-04-14T03:00:50.273Z,4.70
2023-04-14T03:03:18.758Z,4.66
2023-04-14T03:05:47.178Z,4.63
2023-04-14T03:08:16.842Z,4.63
2023-04-14T03:10:48.995Z,4.60
2023-04-14T03:13:18.815Z,4.55
2023-04-14T03:15:46.834Z,4.50
2023-04-14T03:18:15.904Z,4.47
2023-04-14T03:20:45.870Z,4.45
2023-04-14T03:23:13.897Z,4.45
2023-04-14T03:25:41.717Z,4.44
2023-04-14T03:28:16.188Z,4.43
2023-04-14T03:30:49.366Z,4.41
2023-04-14T03:33:22.919Z,4.40
2023-04-14T03:35:53.409Z,4.39
2023-04-14T03:38:21.521Z,4.39
2023-04-14T03:40:50.460Z,4.37
2023-04-14T03:43:20.327Z,4.37
2023-04-14T03:45:49.406Z,4.34
2023-04-14T03:48:19.597Z,4.31
2023-04-14T03:50:51.587Z,4.30
2023-04-14T03:53:21.342Z,4.29
2023-04-14T03:55:51.645Z,4.28
2023-04-14T03:58:20.430Z,4.26
2023-04-14T04:00:48.793Z,4.27
2023-04-14T04:03:16.703Z,4.26
2023-04-14T04:05:44.747Z,4.23
2023-04-14T04:08:12.731Z,4.23
2023-04-14T04:10:42.811Z,4.21
2023-04-14T04:13:16.660Z,4.21
2023-04-14T04:15:45.492Z,4.18
2023-04-14T04:18:17.032Z,4.18
2023-04-14T04:20:46.229Z,4.19
2023-04-14T04:23:15.693Z,4.18
2023-04-14T04:25:43.007Z,4.16
2023-04-14T04:28:10.314Z,4.14
2023-04-14T04:30:42.912Z,4.14
2023-04-14T04:33:11.568Z,4.13
2023-04-14T04:35:41.211Z,4.11
2023-04-14T04:38:11.380Z,4.09
2023-04-14T04:40:39.209Z,4.09
2023-04-14T04:43:06.225Z,4.08
2023-04-14T04:45:59.905Z,4.11
2023-04-14T04:48:26.977Z,4.11
2023-04-14T04:50:54.177Z,4.12
2023-04-14T04:53:21.197Z,4.13
2023-04-14T04:55:48.206Z,4.16
2023-04-14T04:58:15.271Z,4.19
2023-04-14T05:00:43.528Z,4.21
2023-04-14T05:03:10.735Z,4.21
2023-04-14T05:05:38.002Z,4.24
2023-04-14T05:08:06.003Z,4.27
2023-04-14T05:10:37.254Z,4.31
2023-04-14T05:13:04.337Z,4.34
2023-04-14T05:15:31.868Z,4.38
2023-04-14T05:17:59.318Z,4.42
2023-04-14T05:20:26.973Z,4.46
2023-04-14T05:22:54.002Z,4.52
2023-04-14T05:25:21.484Z,4.57
2023-04-14T05:27:48.513Z,4.63
2023-04-14T05:30:15.830Z,4.68
2023-04-14T05:32:42.884Z,4.74
2023-04-14T05:35:10.000Z,4.79
2023-04-14T05:37:37.059Z,4.85
2023-04-14T05:40:05.161Z,4.91
2023-04-14T05:42:32.192Z,4.98
2023-04-14T05:44:59.290Z,5.06
2023-04-14T05:47:26.440Z,5.16
2023-04-14T05:49:53.638Z,5.24
2023-04-14T05:52:20.690Z,5.34
2023-04-14T05:54:47.689Z,5.43
2023-04-14T05:57:14.741Z,5.53
2023-04-14T05:59:42.480Z,5.61
2023-04-14T06:02:09.741Z,5.70
2023-04-14T06:04:37.022Z,5.82
2023-04-14T06:07:04.331Z,5.93
2023-04-14T06:09:31.822Z,6.02
2023-04-14T06:11:58.926Z,6.08
2023-04-14T06:14:25.952Z,6.16
2023-04-14T06:16:55.500Z,6.26
2023-04-14T06:19:23.044Z,6.36
2023-04-14T06:21:50.302Z,6.44
2023-04-14T06:24:17.473Z,6.53
2023-04-14T06:26:44.617Z,6.60
2023-04-14T06:29:12.058Z,6.69
2023-04-14T06:31:39.286Z,6.78
2023-04-14T06:34:06.550Z,6.83
2023-04-14T06:36:33.884Z,6.92
2023-04-14T06:39:01.568Z,6.99
2023-04-14T06:41:29.216Z,7.08
2023-04-14T06:43:56.598Z,7.17
2023-04-14T06:46:23.684Z,7.25
2023-04-14T06:48:51.114Z,7.34
2023-04-14T06:51:18.979Z,7.45
2023-04-14T06:53:46.236Z,7.54
2023-04-14T06:56:13.497Z,7.64
2023-04-14T06:58:41.231Z,7.74
2023-04-14T07:01:08.389Z,7.88
2023-04-14T07:03:36.058Z,7.97
2023-04-14T07:06:11.965Z,8.07
2023-04-14T07:08:40.756Z,8.14
2023-04-14T07:11:11.028Z,8.25
2023-04-14T07:13:40.606Z,8.35
2023-04-14T07:16:08.759Z,8.48
2023-04-14T07:18:36.604Z,8.59
2023-04-14T07:21:03.862Z,8.67
2023-04-14T07:23:31.620Z,8.76
2023-04-14T07:26:00.714Z,8.87
2023-04-14T07:28:28.462Z,9.00
2023-04-14T07:30:55.793Z,9.12
2023-04-14T07:33:23.033Z,9.24
2023-04-14T07:36:02.103Z,9.34
2023-04-14T07:38:33.256Z,9.48
2023-04-14T07:41:04.026Z,9.61
2023-04-14T07:43:37.448Z,9.73
2023-04-14T07:46:07.187Z,9.84
2023-04-14T07:48:36.885Z,9.99
2023-04-14T07:51:05.807Z,10.14
2023-04-14T07:53:34.018Z,10.30
2023-04-14T07:56:01.147Z,10.43
2023-04-14T07:58:29.546Z,10.55
2023-04-14T08:00:57.397Z,10.66
2023-04-14T08:03:24.676Z,10.81
2023-04-14T08:05:52.477Z,10.90
2023-04-14T08:08:19.685Z,11.04
2023-04-14T08:10:46.835Z,11.18
2023-04-14T08:13:13.889Z,11.32
2023-04-14T08:15:41.097Z,11.45
2023-04-14T08:18:08.314Z,11.57
2023-04-14T08:20:35.426Z,11.70
2023-04-14T08:23:02.650Z,11.81
2023-04-14T08:25:29.716Z,11.92
2023-04-14T08:27:56.692Z,12.02
2023-04-14T08:30:24.774Z,12.13
2023-04-14T08:32:52.209Z,12.24
2023-04-14T08:35:38.942Z,12.30
2023-04-14T08:38:06.385Z,12.39
2023-04-14T08:40:41.032Z,12.48
2023-04-14T08:43:08.420Z,12.56
2023-04-14T08:45:36.797Z,12.62
2023-04-14T08:48:06.098Z,12.69
2023-04-14T08:50:43.176Z,12.72
2023-04-14T08:53:12.662Z,12.78
2023-04-14T08:55:43.584Z,12.86
2023-04-14T08:58:11.291Z,12.92
2023-04-14T09:00:40.308Z,13.00
2023-04-14T09:03:09.481Z,13.08
2023-04-14T09:05:37.862Z,13.18
2023-04-14T09:08:05.241Z,13.32
2023-04-14T09:10:32.468Z,13.46
2023-04-14T09:13:01.419Z,13.62
2023-04-14T09:15:29.220Z,13.72
2023-04-14T09:17:57.281Z,13.78
2023-04-14T09:20:37.906Z,13.85
2023-04-14T09:23:10.178Z,14.01
2023-04-14T09:25:39.806Z,14.17
2023-04-14T09:28:07.370Z,14.12
2023-04-14T09:30:35.053Z,13.91
2023-04-14T09:33:07.490Z,14.10
2023-04-14T09:35:47.670Z,14.45
2023-04-14T09:38:17.083Z,14.69
2023-04-14T09:40:45.034Z,14.72
2023-04-14T09:43:27.413Z,14.64
2023-04-14T09:45:56.149Z,14.43
2023-04-14T09:48:24.366Z,14.52
2023-04-14T09:51:07.322Z,15.00
2023-04-14T09:53:37.806Z,15.41
2023-04-14T09:56:11.882Z,15.64
2023-04-14T09:58:42.986Z,15.44
2023-04-14T10:01:20.707Z,15.13
2023-04-14T10:03:50.083Z,15.37
2023-04-14T10:06:20.144Z,15.54
2023-04-14T10:08:49.486Z,15.49
2023-04-14T10:11:20.427Z,15.33
2023-04-14T10:14:00.933Z,15.26
2023-04-14T10:16:28.264Z,15.58
2023-04-14T10:18:57.560Z,15.84
2023-04-14T10:21:26.177Z,15.70
2023-04-14T10:23:55.582Z,15.59
2023-04-14T10:26:22.791Z,15.46
2023-04-14T10:28:53.117Z,15.71
2023-04-14T10:31:34.982Z,16.03
2023-04-14T10:34:13.270Z,16.31
2023-04-14T10:36:40.840Z,16.23
2023-04-14T10:39:10.380Z,16.42
2023-04-14T10:41:52.040Z,16.65
2023-04-14T10:44:36.129Z,16.64
2023-04-14T10:47:08.370Z,16.20
2023-04-14T10:49:38.394Z,15.90
2023-04-14T10:52:27.568Z,15.90
2023-04-14T10:55:08.149Z,16.04
2023-04-14T10:57:45.844Z,16.51
2023-04-14T11:00:25.239Z,17.11
2023-04-14T11:03:08.330Z,17.39
2023-04-14T11:05:41.866Z,17.39
2023-04-14T11:08:36.226Z,17.52
2023-04-14T11:11:06.045Z,17.44
2023-04-14T11:13:34.975Z,17.50
2023-04-14T11:16:09.591Z,17.67
2023-04-14T11:18:46.875Z,17.54
2023-04-14T11:21:19.397Z,17.44
2023-04-14T11:23:50.916Z,17.43
2023-04-14T11:26:18.510Z,17.67
2023-04-14T11:28:48.661Z,18.20
2023-04-14T11:31:27.659Z,18.40
2023-04-14T11:33:54.907Z,18.11
2023-04-14T11:36:24.966Z,17.82
2023-04-14T11:38:52.383Z,17.72
2023-04-14T11:41:21.615Z,17.72
2023-04-14T11:43:48.897Z,17.95
2023-04-14T11:46:19.367Z,18.50
2023-04-14T11:48:46.521Z,18.92
2023-04-14T11:51:14.031Z,19.00
2023-04-14T11:53:43.273Z,18.91
2023-04-14T11:56:12.822Z,18.74
2023-04-14T11:58:40.044Z,18.39
2023-04-14T12:01:07.115Z,17.92
2023-04-14T12:03:36.837Z,18.01
2023-04-14T12:06:04.648Z,18.15
2023-04-14T12:08:32.898Z,18.56
2023-04-14T12:11:15.763Z,19.10
2023-04-14T12:13:45.015Z,19.40
2023-04-14T12:16:13.044Z,19.25
2023-04-14T12:18:40.814Z,18.98
2023-04-14T12:21:10.880Z,18.73
2023-04-14T12:23:40.894Z,18.43
2023-04-14T12:26:12.385Z,18.36
2023-04-14T12:28:41.891Z,18.51
2023-04-14T12:31:10.462Z,18.48
2023-04-14T12:33:37.756Z,18.57
2023-04-14T12:36:13.186Z,19.07
2023-04-14T12:38:40.397Z,19.29
2023-04-14T12:41:07.565Z,19.30
2023-04-14T12:43:37.795Z,19.40
2023-04-14T12:46:05.892Z,19.39
2023-04-14T12:48:48.428Z,19.31
2023-04-14T12:51:20.641Z,19.26
2023-04-14T12:53:50.506Z,19.07
2023-04-14T12:56:22.334Z,19.13
2023-04-14T12:58:51.338Z,19.29
2023-04-14T13:01:22.584Z,19.06
2023-04-14T13:03:52.577Z,18.85
2023-04-14T13:06:23.098Z,18.76
2023-04-14T13:08:53.124Z,18.49
2023-04-14T13:11:22.544Z,18.19
2023-04-14T13:13:51.088Z,17.88
2023-04-14T13:16:18.681Z,17.69
2023-04-14T13:18:47.595Z,17.63
2023-04-14T13:21:15.438Z,17.89
2023-04-14T13:23:42.760Z,18.10
2023-04-14T13:26:10.588Z,18.35
2023-04-14T13:28:37.873Z,18.53
2023-04-14T13:31:05.152Z,18.76
2023-04-14T13:33:33.273Z,18.99
2023-04-14T13:36:03.087Z,19.14
2023-04-14T13:38:31.087Z,19.28
2023-04-14T13:40:58.435Z,19.29
2023-04-14T13:43:26.252Z,19.28
2023-04-14T13:45:56.914Z,19.22
2023-04-14T13:48:24.108Z,19.45
2023-04-14T13:50:52.502Z,19.62
2023-04-14T13:53:19.926Z,19.81
2023-04-14T13:55:47.077Z,19.82
2023-04-14T13:58:14.410Z,19.85
2023-04-14T14:00:41.714Z,19.76
2023-04-14T14:03:08.966Z,19.76
2023-04-14T14:05:36.171Z,19.69
2023-04-14T14:08:03.727Z,19.62
2023-04-14T14:10:30.978Z,19.43
2023-04-14T14:12:58.063Z,19.17
2023-04-14T14:15:25.855Z,19.05
2023-04-14T14:17:55.798Z,18.97
2023-04-14T14:20:22.758Z,18.95
2023-04-14T14:22:49.800Z,18.96
2023-04-14T14:25:20.106Z,18.96
2023-04-14T14:27:48.376Z,19.11
2023-04-14T14:30:15.835Z,19.26
2023-04-14T14:32:43.107Z,19.26
2023-04-14T14:35:10.490Z,19.12
2023-04-14T14:37:37.792Z,19.05
2023-04-14T14:40:05.852Z,18.94
2023-04-14T14:42:33.160Z,18.93
2023-04-14T14:45:00.917Z,18.91
2023-04-14T14:47:29.006Z,18.98
2023-04-14T14:50:02.944Z,19.18
2023-04-14T14:52:32.839Z,19.51
2023-04-14T14:54:59.970Z,19.76
2023-04-14T14:57:27.469Z,19.83
2023-04-14T14:59:54.624Z,19.80
2023-04-14T15:02:22.561Z,19.71
2023-04-14T15:04:50.053Z,19.60
2023-04-14T15:07:18.044Z,19.55
2023-04-14T15:09:49.878Z,19.49
2023-04-14T15:12:17.620Z,19.43
2023-04-14T15:14:44.827Z,19.41
2023-04-14T15:17:11.862Z,19.50
2023-04-14T15:19:39.084Z,19.59
2023-04-14T15:22:06.438Z,19.67
2023-04-14T15:24:33.861Z,19.72
2023-04-14T15:27:02.527Z,19.72
2023-04-14T15:29:30.528Z,19.72
2023-04-14T15:31:57.650Z,19.69
2023-04-14T15:34:25.321Z,19.70
2023-04-14T15:36:52.423Z,19.74
2023-04-14T15:39:19.524Z,19.75
2023-04-14T15:41:47.738Z,19.82
2023-04-14T15:44:16.610Z,19.86
2023-04-14T15:46:43.709Z,19.91
2023-04-14T15:49:10.946Z,20.15
2023-04-14T15:51:38.039Z,20.49
2023-04-14T15:54:05.273Z,20.61
2023-04-14T15:56:32.354Z,20.65
2023-04-14T15:58:59.345Z,20.80
2023-04-14T16:01:26.507Z,20.92
2023-04-14T16:03:53.979Z,20.91
2023-04-14T16:06:21.574Z,20.63
2023-04-14T16:08:48.621Z,20.55
2023-04-14T16:11:16.568Z,20.60
2023-04-14T16:13:44.105Z,20.41
2023-04-14T16:16:14.213Z,20.43
2023-04-14T16:18:42.407Z,20.38
2023-04-14T16:21:09.690Z,19.99
2023-04-14T16:23:36.872Z,19.56
2023-04-14T16:26:04.188Z,19.19
2023-04-14T16:28:31.757Z,18.79
2023-04-14T16:31:05.370Z,18.45
2023-04-14T16:33:32.825Z,18.15
2023-04-14T16:36:07.765Z,17.82
2023-04-14T16:38:37.621Z,17.56
2023-04-14T16:41:04.727Z,17.37
2023-04-14T16:43:31.952Z,17.42
2023-04-14T16:46:04.175Z,17.62
2023-04-14T16:48:32.637Z,17.59
2023-04-14T16:51:10.907Z,17.48
2023-04-14T16:53:39.029Z,17.24
2023-04-14T16:56:10.513Z,17.06
2023-04-14T16:58:39.038Z,16.92
2023-04-14T17:01:06.907Z,16.79
2023-04-14T17:03:36.164Z,16.68
2023-04-14T17:06:04.066Z,16.58
2023-04-14T17:08:31.196Z,16.46
2023-04-14T17:10:58.607Z,16.31
2023-04-14T17:13:26.918Z,16.20
2023-04-14T17:16:02.449Z,16.09
2023-04-14T17:18:35.610Z,15.98
2023-04-14T17:21:03.347Z,15.92
2023-04-14T17:23:30.564Z,15.86
2023-04-14T17:25:58.771Z,15.83
2023-04-14T17:28:27.276Z,15.81
2023-04-14T17:30:54.364Z,15.80
2023-04-14T17:33:22.162Z,15.79
2023-04-14T17:35:49.260Z,15.74
2023-04-14T17:38:16.335Z,15.69
2023-04-14T17:40:43.455Z,15.62
2023-04-14T17:43:10.726Z,15.59
2023-04-14T17:45:39.922Z,15.57
2023-04-14T17:48:07.571Z,15.56
2023-04-14T17:50:36.004Z,15.54
2023-04-14T17:53:03.111Z,15.50
2023-04-14T17:55:30.197Z,15.43
2023-04-14T17:57:57.883Z,15.43
2023-04-14T18:00:24.939Z,15.32
2023-04-14T18:02:52.661Z,15.27
2023-04-14T18:05:19.960Z,15.23
2023-04-14T18:07:47.076Z,15.16
2023-04-14T18:10:14.310Z,15.07
2023-04-14T18:12:41.815Z,14.98
2023-04-14T18:15:15.190Z,14.87
2023-04-14T18:17:43.634Z,14.77
2023-04-14T18:20:12.337Z,14.64
2023-04-14T18:22:39.520Z,14.56
2023-04-14T18:25:08.360Z,14.44
2023-04-14T18:30:07.281Z,14.22
2023-04-14T18:32:34.551Z,14.09
2023-04-14T18:35:01.677Z,13.99
2023-04-14T18:37:28.951Z,13.89
2023-04-14T18:39:56.776Z,13.80
2023-04-14T18:42:23.955Z,13.71
2023-04-14T18:44:51.802Z,13.61
2023-04-14T18:47:19.691Z,13.50
2023-04-14T18:49:47.021Z,13.39
2023-04-14T18:52:14.029Z,13.30
2023-04-14T18:54:41.202Z,13.17
2023-04-14T18:57:08.371Z,13.07
2023-04-14T18:59:36.288Z,12.97
2023-04-14T19:02:04.559Z,12.89
2023-04-14T19:04:31.770Z,12.80
2023-04-14T19:06:58.854Z,12.71
2023-04-14T19:09:27.504Z,12.64
2023-04-14T19:11:55.639Z,12.55
2023-04-14T19:14:23.258Z,12.48
2023-04-14T19:16:50.315Z,12.40
2023-04-14T19:19:17.275Z,12.37
2023-04-14T19:21:44.447Z,12.30
2023-04-14T19:24:11.863Z,12.25
2023-04-14T19:26:41.014Z,12.22
2023-04-14T19:29:08.151Z,12.17
2023-04-14T19:31:35.469Z,12.14
2023-04-14T19:34:02.745Z,12.11
2023-04-14T19:36:32.277Z,12.09
2023-04-14T19:38:59.768Z,12.07
2023-04-14T19:41:27.431Z,12.03
2023-04-14T19:43:54.459Z,12.01
2023-04-14T19:46:21.805Z,11.98
2023-04-14T19:48:49.416Z,11.95
2023-04-14T19:51:16.383Z,11.91
2023-04-14T19:53:44.215Z,11.90
2023-04-14T19:56:11.694Z,11.89
2023-04-14T19:58:38.648Z,11.88
2023-04-14T20:01:05.817Z,11.86
2023-04-14T20:03:34.488Z,11.87
2023-04-14T20:06:02.183Z,11.87
2023-04-14T20:08:30.549Z,11.85
2023-04-14T20:10:57.755Z,11.84
2023-04-14T20:13:27.745Z,11.83
2023-04-14T20:15:55.314Z,11.90
2023-04-14T20:18:22.752Z,11.80
2023-04-14T20:20:50.398Z,11.73
2023-04-14T20:23:17.784Z,11.70
2023-04-14T20:25:45.893Z,11.66
2023-04-14T20:28:15.413Z,11.61
2023-04-14T20:30:48.200Z,11.56
2023-04-14T20:33:21.501Z,11.53
2023-04-14T20:35:51.556Z,11.51
2023-04-14T20:38:18.941Z,11.47
2023-04-14T20:40:46.200Z,11.44
2023-04-14T20:43:13.215Z,11.39
2023-04-14T20:45:40.563Z,11.34
2023-04-14T20:48:08.007Z,11.28
2023-04-14T20:50:35.205Z,11.24
2023-04-14T20:53:02.245Z,11.19
2023-04-14T20:55:32.543Z,11.15
2023-04-14T20:57:59.962Z,11.09
2023-04-14T21:00:27.019Z,11.05
2023-04-14T21:02:54.449Z,10.99
2023-04-14T21:05:22.075Z,10.94
2023-04-14T21:07:49.563Z,10.89
2023-04-14T21:10:16.646Z,10.84
2023-04-14T21:15:06.434Z,10.77
2023-04-14T21:15:48.584Z,10.71
2023-04-14T21:18:19.133Z,10.69
2023-04-14T21:20:46.389Z,10.66
2023-04-14T21:23:13.663Z,10.66
2023-04-14T21:25:41.018Z,10.64
2023-04-14T21:28:08.697Z,10.66
2023-04-14T21:30:36.057Z,10.67
2023-04-14T21:33:06.927Z,10.67
2023-04-14T21:35:35.730Z,10.69
2023-04-14T21:38:03.485Z,10.73
2023-04-14T21:40:30.941Z,10.75
2023-04-14T21:42:58.208Z,10.76
2023-04-14T21:45:27.044Z,10.75
2023-04-14T21:47:54.189Z,10.75
2023-04-14T21:50:21.692Z,10.76
2023-04-14T21:52:48.669Z,10.77
2023-04-14T21:55:16.389Z,10.75
2023-04-14T21:57:49.353Z,10.74
2023-04-14T22:00:20.325Z,10.71
2023-04-14T22:02:47.927Z,10.70
2023-04-14T22:05:15.874Z,10.65
2023-04-14T22:07:42.988Z,10.63
2023-04-14T22:10:10.424Z,10.59
2023-04-14T22:12:39.727Z,10.54
2023-04-14T22:15:10.558Z,10.51
2023-04-14T22:17:41.571Z,10.47
2023-04-14T22:20:09.863Z,10.42
2023-04-14T22:22:37.255Z,10.37
2023-04-14T22:25:04.999Z,10.35
2023-04-14T22:27:33.880Z,10.31
2023-04-14T22:30:02.052Z,10.28
2023-04-14T22:32:29.301Z,10.22
2023-04-14T22:34:56.534Z,10.17
2023-04-14T22:37:23.752Z,10.13
2023-04-14T22:39:50.895Z,10.10
2023-04-14T22:42:18.064Z,10.06
2023-04-14T22:44:45.277Z,10.04
2023-04-14T22:47:12.468Z,10.01
2023-04-14T22:49:39.536Z,9.98
2023-04-14T22:52:06.751Z,9.97
2023-04-14T22:54:33.785Z,9.94
2023-04-14T22:57:01.316Z,9.92
2023-04-14T22:59:28.315Z,9.91
2023-04-14T23:01:55.842Z,9.89
2023-04-14T23:04:23.056Z,9.87
2023-04-14T23:06:50.140Z,9.88
2023-04-14T23:09:17.136Z,9.88
2023-04-14T23:11:44.354Z,9.89
2023-04-14T23:14:11.573Z,9.86
2023-04-14T23:16:39.099Z,9.82
2023-04-14T23:19:06.987Z,9.79
2023-04-14T23:21:34.720Z,9.76
2023-04-14T23:24:02.030Z,9.72
2023-04-14T23:26:29.529Z,9.68
2023-04-14T23:28:56.760Z,9.65
2023-04-14T23:31:23.949Z,9.60
2023-04-14T23:33:52.827Z,9.56
2023-04-14T23:36:20.456Z,9.50
2023-04-14T23:38:47.507Z,9.44
2023-04-14T23:41:14.641Z,9.39
2023-04-14T23:43:41.740Z,9.35
2023-04-14T23:46:08.804Z,9.29
2023-04-14T23:48:36.021Z,9.25
2023-04-14T23:51:17.904Z,9.21
2023-04-14T23:53:49.409Z,9.15
2023-04-14T23:56:16.635Z,9.09
2023-04-14T23:58:44.544Z,9.03
